Time;durP1;ratioP1;P1;durP2;ratioP2;P2;SDS_P1;SDS_P2;PMS_P1;PMS_P2;Temp;Humidity;BMP_temperature;BMP_pressure;BME280_temperature;BME280_humidity;BME280_pressure;Samples;Min_cycle;Max_cycle;Signal;HPM_P1;HPM_P2
2022/11/22 00:00:00;;;;;;;58.05;53.03;;;;;;;5.18;100.00;100508.88;5001963;28;20047;-86
2022/11/22 00:02:27;;;;;;;55.90;51.40;;;;;;;5.13;100.00;100513.84;5005410;28;20057;-86
2022/11/22 00:04:56;;;;;;;56.05;51.25;;;;;;;5.22;100.00;100519.88;5002002;28;20486;-83
2022/11/22 00:07:24;;;;;;;49.95;45.65;;;;;;;5.15;100.00;100517.13;5003950;28;20054;-85
2022/11/22 00:09:52;;;;;;;58.25;53.65;;;;;;;5.07;100.00;100530.34;5003547;28;20489;-85
2022/11/22 00:12:19;;;;;;;52.80;48.35;;;;;;;5.12;100.00;100522.75;5000689;28;20490;-85
2022/11/22 00:14:46;;;;;;;56.47;51.72;;;;;;;5.21;100.00;100521.69;5002416;28;20049;-86
2022/11/22 00:17:13;;;;;;;58.72;53.83;;;;;;;5.19;100.00;100525.50;5008425;28;20069;-86
2022/11/22 00:19:40;;;;;;;51.85;47.45;;;;;;;5.20;100.00;100521.84;5001103;28;20046;-85
2022/11/22 00:22:07;;;;;;;50.65;46.45;;;;;;;5.31;100.00;100525.91;4998342;28;20050;-85
2022/11/22 00:24:40;;;;;;;51.65;47.22;;;;;;;5.29;100.00;100526.06;5000639;28;20376;-85
2022/11/22 00:27:07;;;;;;;54.15;49.67;;;;;;;5.23;100.00;100519.72;5005551;28;20054;-85
2022/11/22 00:29:33;;;;;;;54.47;50.25;;;;;;;5.51;100.00;100532.34;4999274;28;20042;-86
2022/11/22 00:32:00;;;;;;;55.92;51.40;;;;;;;5.39;100.00;100531.94;5005370;28;20046;-86
2022/11/22 00:34:27;;;;;;;61.45;56.38;;;;;;;5.32;100.00;100525.72;5000675;28;20041;-85
2022/11/22 00:36:54;;;;;;;63.22;58.47;;;;;;;5.52;100.00;100531.34;5006422;28;20054;-84
2022/11/22 00:39:21;;;;;;;89.65;83.50;;;;;;;5.51;100.00;100537.63;5001412;28;20054;-85
2022/11/22 00:41:49;;;;;;;87.57;81.55;;;;;;;5.89;100.00;100538.41;4998331;28;20046;-85
2022/11/22 00:44:17;;;;;;;77.25;72.10;;;;;;;5.59;100.00;100547.25;5004308;28;20282;-83
2022/11/22 00:46:43;;;;;;;78.88;73.18;;;;;;;5.57;100.00;100546.59;5000592;28;20060;-86
2022/11/22 00:49:10;;;;;;;61.88;57.05;;;;;;;5.53;100.00;100538.22;5001476;28;20042;-85
2022/11/22 00:51:37;;;;;;;70.95;65.63;;;;;;;5.73;100.00;100538.56;5001981;28;20404;-85
2022/11/22 00:54:04;;;;;;;83.53;77.72;;;;;;;5.57;100.00;100534.28;5007568;28;20038;-87
2022/11/22 00:56:32;;;;;;;78.68;73.13;;;;;;;5.54;100.00;100541.69;5002877;28;20046;-84
2022/11/22 00:59:00;;;;;;;64.75;59.97;;;;;;;5.76;100.00;100530.31;5000846;28;20057;-87
2022/11/22 01:01:27;;;;;;;69.32;64.25;;;;;;;5.51;100.00;100540.25;5122778;23;20061;-86
2022/11/22 01:03:55;;;;;;;91.65;85.35;;;;;;;5.59;100.00;100536.72;5029964;28;20053;-88
2022/11/22 01:06:21;;;;;;;109.32;102.00;;;;;;;5.49;100.00;100535.13;5032026;28;20050;-87
2022/11/22 01:08:49;;;;;;;97.18;90.47;;;;;;;5.54;100.00;100542.53;5026666;28;20049;-86
2022/11/22 01:11:19;;;;;;;90.40;84.28;;;;;;;5.50;100.00;100542.03;5028585;28;20049;-86
2022/11/22 01:13:46;;;;;;;103.68;96.78;;;;;;;5.59;100.00;100540.16;5029243;28;20045;-88
2022/11/22 01:16:15;;;;;;;100.03;93.60;;;;;;;5.50;100.00;100538.59;5028636;28;20049;-87
2022/11/22 01:18:43;;;;;;;96.47;90.00;;;;;;;5.62;100.00;100539.81;5029470;28;20045;-85
2022/11/22 01:21:10;;;;;;;103.53;96.63;;;;;;;5.62;100.00;100533.72;5023968;28;20397;-86
2022/11/22 01:23:37;;;;;;;62.70;58.03;;;;;;;5.70;100.00;100528.38;5031870;28;20389;-87
2022/11/22 01:26:06;;;;;;;60.20;55.60;;;;;;;5.48;100.00;100522.16;5028736;28;20049;-86
2022/11/22 01:28:34;;;;;;;58.05;53.65;;;;;;;5.67;100.00;100524.28;5031040;28;20049;-88
2022/11/22 01:31:01;;;;;;;53.55;49.30;;;;;;;5.78;100.00;100528.31;5021910;28;20037;-87
2022/11/22 01:33:29;;;;;;;55.47;50.80;;;;;;;5.84;100.00;100532.88;5025942;28;20045;-87
2022/11/22 01:35:57;;;;;;;53.15;49.05;;;;;;;5.82;100.00;100534.88;5032597;28;20508;-87
2022/11/22 01:38:24;;;;;;;58.97;54.58;;;;;;;6.46;100.00;100537.00;5033088;28;20077;-88
2022/11/22 01:40:51;;;;;;;57.25;53.17;;;;;;;5.73;100.00;100535.94;5026534;28;20417;-87
2022/11/22 01:43:20;;;;;;;64.10;59.25;;;;;;;5.63;100.00;100525.66;5029904;28;20397;-88
2022/11/22 01:45:58;;;;;;;59.45;55.05;;;;;;;5.91;100.00;100525.88;5026229;28;20041;-88
2022/11/22 01:48:43;;;;;;;61.78;57.17;;;;;;;5.74;100.00;100532.28;5024011;28;20051;-87
2022/11/22 01:51:19;;;;;;;60.13;55.50;;;;;;;5.73;100.00;100534.13;5032025;28;20049;-85
2022/11/22 01:53:46;;;;;;;55.00;50.75;;;;;;;5.54;100.00;100534.63;5027418;28;20073;-85
2022/11/22 01:56:17;;;;;;;55.10;50.75;;;;;;;5.66;100.00;100537.66;5021517;28;20049;-85
2022/11/22 01:58:47;;;;;;;60.72;55.83;;;;;;;5.53;100.00;100532.97;5030620;28;20460;-86
2022/11/22 02:01:14;;;;;;;56.47;52.05;;;;;;;5.68;100.00;100540.91;5029779;28;20064;-86
2022/11/22 02:03:46;;;;;;;59.05;54.70;;;;;;;5.81;100.00;100540.31;5028872;28;20470;-88
2022/11/22 02:06:14;;;;;;;57.95;53.50;;;;;;;6.22;100.00;100535.47;5031623;28;20064;-87
2022/11/22 02:08:49;;;;;;;59.50;54.78;;;;;;;5.60;100.00;100539.19;5029538;28;20466;-85
2022/11/22 02:11:18;;;;;;;55.83;51.58;;;;;;;5.61;100.00;100540.00;5022975;28;20060;-87
2022/11/22 02:13:45;;;;;;;56.67;52.13;;;;;;;5.64;100.00;100540.47;5026650;28;20045;-87
2022/11/22 02:16:13;;;;;;;58.15;53.75;;;;;;;6.08;100.00;100547.66;5022513;28;20061;-88
2022/11/22 02:18:40;;;;;;;63.40;58.63;;;;;;;5.49;100.00;100543.03;5027943;28;20037;-88
2022/11/22 02:21:09;;;;;;;67.70;62.50;;;;;;;5.41;100.00;100547.56;5025160;28;20378;-88
2022/11/22 02:23:46;;;;;;;60.33;55.65;;;;;;;5.48;100.00;100566.94;5031027;28;20048;-86
2022/11/22 02:26:15;;;;;;;63.22;58.22;;;;;;;5.45;100.00;100562.03;5032415;28;20050;-87
2022/11/22 02:28:42;;;;;;;58.78;53.88;;;;;;;5.45;100.00;100560.22;5026104;28;20049;-88
2022/11/22 02:31:09;;;;;;;58.78;54.38;;;;;;;5.32;100.00;100553.88;5020630;28;20141;-85
2022/11/22 02:33:36;;;;;;;61.83;57.05;;;;;;;5.44;100.00;100555.91;5022419;28;20045;-87
2022/11/22 02:36:03;;;;;;;57.17;52.90;;;;;;;5.42;100.00;100552.66;5016769;28;20042;-87
2022/11/22 02:38:34;;;;;;;56.40;52.00;;;;;;;5.40;100.00;100548.56;5026763;28;20539;-86
2022/11/22 02:41:05;;;;;;;62.35;57.60;;;;;;;5.32;100.00;100548.59;5024477;28;20049;-87
2022/11/22 02:43:37;;;;;;;60.72;55.95;;;;;;;5.56;100.00;100553.69;5028691;28;20068;-87
2022/11/22 02:46:05;;;;;;;61.75;56.80;;;;;;;5.33;100.00;100545.00;5022253;28;20045;-87
2022/11/22 02:48:32;;;;;;;61.50;57.00;;;;;;;5.36;100.00;100553.34;5023375;28;20050;-87
2022/11/22 02:50:59;;;;;;;62.22;57.42;;;;;;;5.28;100.00;100563.94;5031328;28;20042;-87
2022/11/22 02:53:26;;;;;;;62.95;58.08;;;;;;;5.17;100.00;100570.41;5027911;28;20052;-88
2022/11/22 02:55:53;;;;;;;65.10;60.17;;;;;;;5.15;100.00;100563.72;5027753;28;20049;-88
2022/11/22 02:58:20;;;;;;;62.17;57.70;;;;;;;5.18;100.00;100563.38;5027380;28;20053;-88
2022/11/22 03:00:55;;;;;;;59.55;54.90;;;;;;;5.25;100.00;100567.75;5022209;28;20057;-87
2022/11/22 03:03:28;;;;;;;56.35;51.92;;;;;;;5.25;100.00;100580.91;5013826;28;20146;-89
2022/11/22 03:09:16;;;;;;;72.30;67.03;;;;;;;5.13;100.00;100570.94;5028378;28;20164;-87
2022/11/22 03:11:46;;;;;;;62.55;57.47;;;;;;;5.10;100.00;100574.75;5027540;28;20060;-85
2022/11/22 03:14:14;;;;;;;65.82;60.88;;;;;;;5.02;100.00;100572.16;5029729;28;20049;-85
2022/11/22 03:16:43;;;;;;;62.35;57.55;;;;;;;5.00;100.00;100563.63;5031057;28;20160;-88
2022/11/22 03:19:11;;;;;;;63.95;58.63;;;;;;;5.03;100.00;100574.63;5028293;28;20053;-87
2022/11/22 03:21:39;;;;;;;56.63;51.80;;;;;;;4.84;100.00;100572.41;5031307;28;20042;-87
2022/11/22 03:24:07;;;;;;;62.42;57.63;;;;;;;4.80;100.00;100573.75;5031106;28;20418;-87
2022/11/22 03:26:34;;;;;;;63.75;58.95;;;;;;;4.82;100.00;100575.22;5031088;28;20046;-87
2022/11/22 03:29:00;;;;;;;60.90;56.30;;;;;;;4.78;100.00;100573.09;5028878;28;20057;-89
2022/11/22 03:31:28;;;;;;;54.90;50.45;;;;;;;4.71;100.00;100585.31;5032577;28;20048;-87
2022/11/22 03:33:57;;;;;;;58.45;53.92;;;;;;;4.71;100.00;100585.31;5030078;28;20196;-89
2022/11/22 03:36:23;;;;;;;59.45;54.65;;;;;;;4.76;100.00;100586.44;5032407;28;20050;-85
2022/11/22 03:38:50;;;;;;;59.80;54.88;;;;;;;4.57;100.00;100577.16;5031770;28;20057;-85
2022/11/22 03:41:17;;;;;;;58.33;53.33;;;;;;;4.55;100.00;100586.19;5030713;28;20053;-88
2022/11/22 03:43:44;;;;;;;55.38;50.78;;;;;;;4.62;100.00;100578.44;5029464;28;20500;-85
2022/11/22 03:46:14;;;;;;;54.53;49.88;;;;;;;4.55;100.00;100579.13;5026218;28;20059;-84
2022/11/22 03:48:41;;;;;;;53.38;48.88;;;;;;;4.38;100.00;100574.88;5026649;28;20045;-85
2022/11/22 03:51:09;;;;;;;54.58;49.72;;;;;;;4.30;100.00;100575.75;5034146;28;20382;-87
2022/11/22 03:53:36;;;;;;;54.00;49.47;;;;;;;4.21;100.00;100570.69;5029788;28;20060;-87
2022/11/22 03:56:04;;;;;;;82.25;75.80;;;;;;;4.15;100.00;100580.06;5030124;28;20386;-88
2022/11/22 03:58:31;;;;;;;75.53;69.60;;;;;;;3.84;100.00;100575.50;5030271;28;20045;-87
2022/11/22 04:00:58;;;;;;;68.63;63.15;;;;;;;3.73;100.00;100581.06;5033122;28;20053;-87
2022/11/22 04:03:25;;;;;;;69.63;64.00;;;;;;;3.85;100.00;100581.56;5025564;28;20045;-87
2022/11/22 04:05:52;;;;;;;67.00;61.20;;;;;;;4.03;100.00;100584.84;5027718;28;20494;-87
2022/11/22 04:08:20;;;;;;;72.78;66.95;;;;;;;3.98;100.00;100575.78;5026358;28;20053;-87
2022/11/22 04:10:48;;;;;;;75.70;69.93;;;;;;;3.57;100.00;100588.94;5025043;28;20450;-86
2022/11/22 04:13:15;;;;;;;63.75;58.50;;;;;;;3.24;100.00;100574.94;5024823;28;20485;-86
2022/11/22 04:15:41;;;;;;;70.93;65.20;;;;;;;2.95;100.00;100591.94;5021762;28;20065;-86
2022/11/22 04:18:09;;;;;;;74.47;67.95;;;;;;;3.51;100.00;100586.97;5029060;28;20050;-86
2022/11/22 04:23:25;;;;;;;69.65;63.42;;;;;;;2.98;100.00;100594.25;5026261;28;20045;-86
2022/11/22 04:25:52;;;;;;;54.95;49.30;;;;;;;3.04;100.00;100598.84;5025715;28;20061;-87
2022/11/22 04:28:22;;;;;;;54.13;48.72;;;;;;;3.02;100.00;100607.88;5030736;28;20056;-87
2022/11/22 04:33:34;;;;;;;63.25;54.42;;;;;;;2.64;100.00;100620.50;5022402;28;20064;-87
2022/11/22 04:36:01;;;;;;;56.63;50.78;;;;;;;2.38;100.00;100621.34;5025574;28;20474;-85
2022/11/22 04:38:29;;;;;;;49.53;44.35;;;;;;;2.17;100.00;100624.31;5031088;28;20046;-87
2022/11/22 04:40:56;;;;;;;48.00;42.75;;;;;;;2.29;100.00;100625.69;5027474;28;20050;-86
2022/11/22 04:46:11;;;;;;;63.53;56.83;;;;;;;2.63;100.00;100616.22;5027348;28;20155;-87
2022/11/22 04:48:40;;;;;;;82.50;73.60;;;;;;;2.62;100.00;100619.84;5029344;28;20455;-87
2022/11/22 04:53:53;;;;;;;71.78;64.90;;;;;;;2.62;100.00;100627.69;5027914;28;20099;-87
2022/11/22 04:56:20;;;;;;;56.47;50.97;;;;;;;2.31;100.00;100627.38;5029839;28;20053;-86
2022/11/22 04:58:50;;;;;;;61.22;55.35;;;;;;;2.36;100.00;100639.03;5027910;28;20053;-87
2022/11/22 05:01:17;;;;;;;56.40;50.40;;;;;;;1.93;100.00;100637.22;5029726;28;20131;-86
2022/11/22 05:03:44;;;;;;;52.65;47.10;;;;;;;1.77;100.00;100643.16;5020855;28;20045;-87
2022/11/22 05:06:13;;;;;;;54.75;49.05;;;;;;;1.89;100.00;100647.19;5030948;28;20052;-86
2022/11/22 05:08:40;;;;;;;47.70;43.22;;;;;;;1.59;100.00;100664.09;5030116;28;20056;-86
2022/11/22 05:11:08;;;;;;;58.35;52.25;;;;;;;1.76;100.00;100667.72;5029489;28;20454;-86
2022/11/22 05:13:37;;;;;;;52.88;47.33;;;;;;;1.79;100.00;100670.84;5030513;28;20493;-86
2022/11/22 05:16:06;;;;;;;58.88;52.53;;;;;;;1.85;100.00;100666.81;5030780;28;20049;-86
2022/11/22 05:18:34;;;;;;;59.15;53.72;;;;;;;1.87;100.00;100671.88;5027136;28;20045;-87
2022/11/22 05:21:04;;;;;;;65.28;58.83;;;;;;;1.76;100.00;100694.72;5030574;28;20048;-85
2022/11/22 05:26:17;;;;;;;51.40;46.10;;;;;;;1.77;100.00;100683.25;5023772;28;20093;-86
2022/11/22 05:28:44;;;;;;;46.58;41.97;;;;;;;1.69;100.00;100679.75;5027029;28;20042;-88
2022/11/22 05:31:12;;;;;;;47.13;42.25;;;;;;;1.95;100.00;100677.22;5028418;28;20366;-87
2022/11/22 05:33:41;;;;;;;53.40;48.17;;;;;;;1.98;100.00;100693.44;5023921;28;20045;-86
2022/11/22 05:36:09;;;;;;;56.67;51.45;;;;;;;1.77;100.00;100714.69;5024930;28;20057;-85
2022/11/22 05:38:36;;;;;;;52.08;46.97;;;;;;;1.77;100.00;100719.13;5025859;28;20046;-88
2022/11/22 05:41:04;;;;;;;50.25;42.72;;;;;;;1.84;100.00;100715.72;5023372;28;20077;-86
2022/11/22 05:43:33;;;;;;;51.90;42.90;;;;;;;1.80;100.00;100713.56;5026277;28;20060;-87
2022/11/22 05:46:06;;;;;;;57.28;43.53;;;;;;;1.90;100.00;100710.88;5022270;28;20041;-87
2022/11/22 05:48:33;;;;;;;56.00;44.13;;;;;;;2.08;100.00;100710.88;5024188;28;20128;-87
2022/11/22 05:51:04;;;;;;;51.97;42.15;;;;;;;1.88;100.00;100723.31;5032472;28;20049;-84
2022/11/22 05:53:31;;;;;;;47.10;39.93;;;;;;;2.32;100.00;100715.50;5030710;28;20037;-90
2022/11/22 05:56:04;;;;;;;51.00;41.30;;;;;;;2.62;100.00;100715.06;5027498;28;20299;-84
2022/11/22 05:58:32;;;;;;;45.17;39.60;;;;;;;2.77;100.00;100725.00;5021867;28;20060;-85
2022/11/22 06:01:03;;;;;;;45.97;41.00;;;;;;;3.36;100.00;100720.66;5029360;28;20048;-85
2022/11/22 06:03:30;;;;;;;48.67;43.58;;;;;;;3.82;100.00;100729.03;5020989;28;20050;-85
2022/11/22 06:05:57;;;;;;;61.88;52.17;;;;;;;4.01;100.00;100730.53;5021012;28;20042;-85
2022/11/22 06:08:24;;;;;;;61.38;51.17;;;;;;;4.11;100.00;100731.19;5026138;28;20049;-84
2022/11/22 06:10:51;;;;;;;64.38;53.97;;;;;;;4.27;100.00;100749.63;5027010;28;20049;-84
2022/11/22 06:13:18;;;;;;;60.75;54.53;;;;;;;4.86;100.00;100730.97;5023490;28;20069;-87
2022/11/22 06:15:46;;;;;;;60.65;54.42;;;;;;;5.03;100.00;100729.13;5022725;28;20045;-87
2022/11/22 06:18:13;;;;;;;82.32;75.32;;;;;;;5.31;100.00;100723.44;5026687;28;20054;-85
2022/11/22 06:20:40;;;;;;;105.90;78.80;;;;;;;5.44;100.00;100729.78;5032213;28;20045;-85
2022/11/22 06:23:06;;;;;;;110.85;65.57;;;;;;;5.70;100.00;100726.03;5025350;28;20045;-88
2022/11/22 06:25:34;;;;;;;73.35;55.22;;;;;;;6.07;100.00;100724.50;5027615;28;20045;-87
2022/11/22 06:28:01;;;;;;;57.28;51.10;;;;;;;6.10;100.00;100718.88;5027923;28;20060;-87
2022/11/22 06:30:28;;;;;;;55.75;49.80;;;;;;;6.78;100.00;100728.50;5028857;28;20402;-88
2022/11/22 06:32:57;;;;;;;50.33;45.95;;;;;;;6.72;100.00;100720.47;5019842;28;20049;-87
2022/11/22 06:35:25;;;;;;;49.53;45.05;;;;;;;7.48;100.00;100721.09;5026251;28;20045;-88
2022/11/22 06:37:52;;;;;;;48.97;44.33;;;;;;;6.84;100.00;100733.06;5031149;28;20049;-87
2022/11/22 06:40:22;;;;;;;48.75;44.65;;;;;;;7.06;100.00;100738.44;5026143;28;20378;-89
2022/11/22 06:42:49;;;;;;;48.50;44.58;;;;;;;7.19;100.00;100746.53;5027677;28;20052;-87
2022/11/22 06:45:16;;;;;;;52.70;47.78;;;;;;;7.43;100.00;100737.50;5020071;28;20054;-87
2022/11/22 06:47:44;;;;;;;55.45;50.65;;;;;;;7.54;100.00;100752.06;5027952;28;20052;-86
2022/11/22 06:50:12;;;;;;;47.88;44.08;;;;;;;7.66;100.00;100747.94;5032307;28;20469;-87
2022/11/22 06:52:40;;;;;;;49.08;44.42;;;;;;;7.81;100.00;100750.56;5029789;28;20498;-87
2022/11/22 06:55:07;;;;;;;47.42;43.60;;;;;;;7.97;100.00;100763.53;5030011;28;20049;-87
2022/11/22 06:57:43;;;;;;;47.78;43.55;;;;;;;7.96;100.00;100747.88;5030059;28;20460;-87
2022/11/22 07:00:12;;;;;;;45.05;41.80;;;;;;;8.37;100.00;100748.03;5029336;28;20046;-88
2022/11/22 07:02:39;;;;;;;46.40;42.60;;;;;;;8.32;100.00;100745.16;5032827;28;20382;-88
2022/11/22 07:05:06;;;;;;;48.97;45.28;;;;;;;8.91;100.00;100744.00;5025318;28;20119;-88
2022/11/22 07:07:40;;;;;;;49.95;46.15;;;;;;;8.97;100.00;100742.41;5036230;28;20052;-88
2022/11/22 07:10:09;;;;;;;48.63;45.00;;;;;;;9.64;100.00;100736.41;5036685;28;20134;-87
2022/11/22 07:12:40;;;;;;;48.50;44.97;;;;;;;9.83;100.00;100740.97;5036455;28;20053;-88
2022/11/22 07:15:24;;;;;;;48.00;44.63;;;;;;;10.30;100.00;100741.88;5026863;28;20057;-88
2022/11/22 07:17:56;;;;;;;44.35;41.22;;;;;;;9.15;100.00;100748.81;5027531;28;20038;-89
2022/11/22 07:20:25;;;;;;;45.03;41.92;;;;;;;8.15;100.00;100754.34;5027118;28;20045;-88
2022/11/22 07:22:53;;;;;;;46.25;43.08;;;;;;;8.15;100.00;100754.34;5034381;28;20367;-87
2022/11/22 07:25:21;;;;;;;47.33;44.13;;;;;;;9.11;100.00;100742.28;5032909;28;20060;-87
2022/11/22 07:28:05;;;;;;;46.33;43.25;;;;;;;9.74;100.00;100744.81;5024675;28;20061;-85
2022/11/22 07:30:32;;;;;;;45.17;41.88;;;;;;;8.39;100.00;100747.91;5025310;28;20073;-86
2022/11/22 07:33:01;;;;;;;43.15;40.25;;;;;;;9.91;100.00;100758.50;5019732;28;20048;-85
2022/11/22 07:35:38;;;;;;;44.17;41.03;;;;;;;9.11;100.00;100760.84;5024484;28;20060;-85
2022/11/22 07:38:09;;;;;;;42.45;39.45;;;;;;;9.34;100.00;100765.03;5021008;28;20072;-87
2022/11/22 07:40:50;;;;;;;42.58;39.88;;;;;;;10.05;100.00;100764.69;5026363;28;20376;-87
2022/11/22 07:43:17;;;;;;;51.42;48.45;;;;;;;9.32;100.00;100756.44;5028603;28;20056;-87
2022/11/22 07:45:58;;;;;;;45.30;42.35;;;;;;;10.09;100.00;100761.41;5021110;28;20474;-87
2022/11/22 07:48:25;;;;;;;44.88;42.17;;;;;;;8.74;100.00;100763.84;5024776;28;20052;-89
2022/11/22 07:50:55;;;;;;;45.08;42.25;;;;;;;9.70;100.00;100764.78;5017390;28;20085;-88
2022/11/22 07:53:25;;;;;;;45.42;42.53;;;;;;;8.95;100.00;100755.84;5024522;28;20047;-87
2022/11/22 07:56:01;;;;;;;47.30;44.25;;;;;;;8.16;100.00;100758.63;5022636;28;20494;-87
2022/11/22 07:58:33;;;;;;;45.63;42.72;;;;;;;9.28;100.00;100749.91;5018623;28;20073;-87
2022/11/22 08:01:15;;;;;;;45.55;42.47;;;;;;;9.77;100.00;100755.03;5024110;28;20058;-87
2022/11/22 08:04:04;;;;;;;45.20;42.28;;;;;;;12.13;100.00;100741.75;5026563;28;20473;-87
2022/11/22 08:06:51;;;;;;;45.20;42.35;;;;;;;9.53;100.00;100761.66;5017087;28;20049;-87
2022/11/22 08:09:23;;;;;;;43.60;41.00;;;;;;;11.18;100.00;100765.50;5024261;28;20064;-87
2022/11/22 08:11:50;;;;;;;42.80;40.20;;;;;;;10.28;100.00;100751.06;5026244;28;20053;-85
2022/11/22 08:14:17;;;;;;;41.67;39.20;;;;;;;9.69;100.00;100762.34;5023424;28;20046;-86
2022/11/22 08:16:44;;;;;;;42.75;40.10;;;;;;;8.75;100.00;100762.84;5027571;28;20056;-85
2022/11/22 08:19:19;;;;;;;43.60;40.70;;;;;;;9.90;100.00;100777.31;5032621;28;20061;-88
2022/11/22 08:21:47;;;;;;;44.45;41.75;;;;;;;12.25;100.00;100771.16;5019213;28;20107;-84
2022/11/22 08:24:16;;;;;;;43.33;40.63;;;;;;;9.26;100.00;100765.19;5029701;28;20053;-84
2022/11/22 08:26:44;;;;;;;43.05;40.25;;;;;;;11.94;100.00;100758.66;5026719;28;20056;-84
2022/11/22 08:29:12;;;;;;;43.45;40.75;;;;;;;12.41;100.00;100750.38;5031063;28;20517;-83
2022/11/22 08:31:40;;;;;;;44.83;42.13;;;;;;;10.59;100.00;100745.16;5026255;28;20465;-84
2022/11/22 08:34:06;;;;;;;44.63;41.95;;;;;;;12.36;100.00;100741.16;5032510;28;20049;-84
2022/11/22 08:36:33;;;;;;;43.88;41.20;;;;;;;13.18;100.00;100733.00;5033583;28;20045;-85
2022/11/22 08:39:00;;;;;;;43.35;40.67;;;;;;;12.86;100.00;100732.34;5031457;28;20050;-83
2022/11/22 08:41:27;;;;;;;43.53;40.92;;;;;;;13.33;100.00;100735.34;5032849;28;20103;-83
2022/11/22 08:43:56;;;;;;;53.50;50.38;;;;;;;12.26;100.00;100745.38;5022700;28;20061;-83
2022/11/22 08:46:22;;;;;;;51.92;48.72;;;;;;;13.04;100.00;100736.84;5023344;28;20087;-86
2022/11/22 08:48:52;;;;;;;48.70;45.83;;;;;;;11.23;100.00;100740.94;5025955;28;20041;-85
2022/11/22 08:51:19;;;;;;;48.88;46.17;;;;;;;13.27;100.00;100744.22;5023325;28;20045;-86
2022/11/22 08:53:46;;;;;;;50.40;47.40;;;;;;;13.03;100.00;100748.56;5020249;28;20050;-86
2022/11/22 08:56:14;;;;;;;49.88;47.08;;;;;;;15.65;100.00;100733.38;5023130;28;20097;-84
2022/11/22 08:58:42;;;;;;;53.60;50.60;;;;;;;12.24;100.00;100742.09;5024530;28;20053;-85
2022/11/22 09:01:12;;;;;;;49.40;46.50;;;;;;;12.86;100.00;100732.34;5028584;28;20069;-87
2022/11/22 09:03:39;;;;;;;50.35;47.55;;;;;;;13.23;100.00;100737.69;5026109;28;20049;-82
2022/11/22 09:06:08;;;;;;;43.85;41.25;;;;;;;14.02;100.00;100727.03;5024573;28;20108;-82
2022/11/22 09:08:36;;;;;;;44.20;41.60;;;;;;;15.14;100.00;100724.31;5029821;28;20432;-82
2022/11/22 09:11:04;;;;;;;44.20;41.78;;;;;;;15.02;100.00;100702.94;5028938;28;20060;-83
2022/11/22 09:13:31;;;;;;;44.13;41.65;;;;;;;14.31;100.00;100718.16;5028015;28;20111;-82
2022/11/22 09:16:01;;;;;;;44.67;42.17;;;;;;;15.09;100.00;100717.00;5028096;28;20444;-82
2022/11/22 09:18:29;;;;;;;45.90;43.33;;;;;;;16.39;100.00;100722.59;5028872;28;20497;-84
2022/11/22 09:20:58;;;;;;;44.22;41.63;;;;;;;15.59;100.00;100726.28;5015394;28;20111;-83
2022/11/22 09:23:25;;;;;;;47.13;44.53;;;;;;;11.35;100.00;100733.94;5022684;28;20060;-84
2022/11/22 09:25:57;;;;;;;46.65;44.05;;;;;;;11.53;100.00;100743.91;5020850;28;20046;-83
2022/11/22 09:28:24;;;;;;;52.53;49.63;;;;;;;13.63;100.00;100734.56;5021992;28;20061;-84
2022/11/22 09:30:51;;;;;;;49.75;47.05;;;;;;;15.44;100.00;100720.66;5027385;28;20053;-84
2022/11/22 09:33:17;;;;;;;46.17;43.47;;;;;;;11.72;100.00;100738.69;5027375;28;20080;-86
2022/11/22 09:35:45;;;;;;;49.75;46.95;;;;;;;13.38;100.00;100722.16;5029234;28;20497;-86
2022/11/22 09:38:12;;;;;;;52.80;49.90;;;;;;;14.37;100.00;100719.06;5028299;28;20067;-85
2022/11/22 09:40:39;;;;;;;51.70;49.00;;;;;;;13.26;100.00;100716.75;5029978;28;20048;-84
2022/11/22 09:43:15;;;;;;;51.28;48.50;;;;;;;14.06;100.00;100704.16;5022964;28;20041;-84
2022/11/22 09:46:12;;;;;;;52.80;50.00;;;;;;;13.89;100.00;100712.84;5022455;28;20052;-84
2022/11/22 09:48:59;;;;;;;52.47;49.70;;;;;;;15.51;100.00;100703.38;5028780;28;20441;-84
2022/11/22 09:51:33;;;;;;;45.55;43.05;;;;;;;13.87;100.00;100701.56;5030529;28;20053;-83
2022/11/22 09:54:04;;;;;;;47.10;44.30;;;;;;;16.41;100.00;100692.91;5027961;28;20042;-84
2022/11/22 09:56:32;;;;;;;49.22;46.42;;;;;;;14.79;96.51;100698.44;5027588;28;20053;-84
2022/11/22 09:59:05;;;;;;;51.88;49.10;;;;;;;15.91;100.00;100704.41;5031038;28;20049;-86
2022/11/22 10:01:37;;;;;;;52.38;49.53;;;;;;;16.02;100.00;100701.66;5028637;28;20072;-86
2022/11/22 10:04:10;;;;;;;51.90;49.15;;;;;;;16.01;95.44;100691.19;5028522;28;20045;-86
2022/11/22 10:06:41;;;;;;;48.13;45.42;;;;;;;13.04;100.00;100697.69;5027701;28;20529;-86
2022/11/22 10:09:22;;;;;;;48.83;46.03;;;;;;;16.91;96.25;100676.75;5029166;28;20136;-85
2022/11/22 10:11:54;;;;;;;55.92;52.63;;;;;;;16.74;85.25;100665.22;5020297;28;20050;-86
2022/11/22 10:14:40;;;;;;;46.20;43.55;;;;;;;12.21;100.00;100679.44;5023844;28;20451;-86
2022/11/22 10:17:21;;;;;;;46.53;43.83;;;;;;;12.49;100.00;100675.50;5024611;28;20446;-84
2022/11/22 10:19:58;;;;;;;44.70;42.30;;;;;;;13.19;100.00;100670.66;5021688;28;20053;-85
2022/11/22 10:22:29;;;;;;;46.78;44.13;;;;;;;16.23;100.00;100656.44;5018925;28;20370;-84
2022/11/22 10:24:58;;;;;;;48.22;45.47;;;;;;;13.63;100.00;100657.97;5026846;28;20104;-84
2022/11/22 10:27:29;;;;;;;49.95;47.20;;;;;;;14.49;100.00;100652.28;4996625;28;20107;-85
2022/11/22 10:30:01;;;;;;;46.95;44.45;;;;;;;14.62;97.69;100654.75;5042283;28;20049;-83
2022/11/22 10:32:36;;;;;;;49.60;46.80;;;;;;;14.48;100.00;100654.16;5026209;28;20080;-82
2022/11/22 10:35:23;;;;;;;48.83;45.92;;;;;;;14.57;100.00;100662.66;5026246;28;20057;-84
2022/11/22 10:38:02;;;;;;;47.75;44.97;;;;;;;13.86;97.84;100664.44;5027694;28;20064;-86
2022/11/22 10:40:42;;;;;;;45.58;42.97;;;;;;;14.76;100.00;100653.44;5028468;28;20049;-82
2022/11/22 10:43:37;;;;;;;45.42;42.92;;;;;;;13.12;100.00;100659.25;5034005;28;20064;-82
2022/11/22 10:46:14;;;;;;;47.60;44.92;;;;;;;15.54;100.00;100656.59;5034701;28;20049;-83
2022/11/22 10:48:48;;;;;;;47.10;44.50;;;;;;;13.67;95.96;100661.81;5030796;28;20046;-84
2022/11/22 10:51:24;;;;;;;47.78;45.17;;;;;;;15.89;97.09;100653.75;5032046;28;20045;-84
2022/11/22 10:54:18;;;;;;;48.13;45.63;;;;;;;16.03;72.49;100648.88;5026518;28;20050;-86
2022/11/22 10:56:53;;;;;;;47.88;45.28;;;;;;;14.99;100.00;100657.13;5029263;28;20048;-85
2022/11/22 10:59:46;;;;;;;49.08;46.38;;;;;;;14.21;85.49;100665.28;5028864;28;20056;-85
2022/11/22 11:02:31;;;;;;;50.38;47.67;;;;;;;16.91;87.25;100652.59;5032013;28;20501;-85
2022/11/22 11:05:04;;;;;;;49.92;47.20;;;;;;;13.80;100.00;100657.31;5028729;28;20497;-85
2022/11/22 11:07:31;;;;;;;49.58;46.80;;;;;;;17.35;68.91;100641.81;5019912;28;20499;-86
2022/11/22 11:10:03;;;;;;;50.28;47.17;;;;;;;17.49;72.90;100641.41;5028430;28;20060;-86
2022/11/22 11:12:40;;;;;;;47.70;45.20;;;;;;;17.52;69.09;100627.47;5030371;28;20045;-85
2022/11/22 11:15:16;;;;;;;47.22;44.65;;;;;;;17.29;74.86;100629.41;5018098;28;20143;-84
2022/11/22 11:17:48;;;;;;;46.63;44.13;;;;;;;16.82;79.42;100632.63;5014947;28;20049;-86
2022/11/22 11:20:22;;;;;;;47.25;44.55;;;;;;;17.09;76.74;100621.94;5032517;28;20045;-86
2022/11/22 11:22:49;;;;;;;47.05;44.55;;;;;;;16.81;77.01;100622.94;5029333;28;20046;-86
2022/11/22 11:25:32;;;;;;;47.50;44.92;;;;;;;16.46;83.18;100613.38;5026545;28;20470;-88
2022/11/22 11:28:02;;;;;;;49.38;46.67;;;;;;;18.25;74.40;100604.47;5034314;28;20538;-85
2022/11/22 11:30:38;;;;;;;49.58;46.97;;;;;;;18.45;65.72;100594.88;5024479;28;20083;-86
2022/11/22 11:33:17;;;;;;;51.67;48.83;;;;;;;16.30;70.27;100586.59;5032977;28;20056;-84
2022/11/22 11:35:45;;;;;;;51.47;48.88;;;;;;;18.68;62.86;100578.31;5034357;28;20119;-84